sensor_id;sensor_type;location;lat;lon;timestamp;P1;durP1;ratioP1;P2;durP2;ratioP2
5217;SDS011;26539;51.064;6.346;2022-11-21T00:00:54;18.92;;;5.80;;
5217;SDS011;26539;51.064;6.346;2022-11-21T00:03:21;13.82;;;5.22;;
5217;SDS011;26539;51.064;6.346;2022-11-21T00:05:48;18.08;;;5.32;;
5217;SDS011;26539;51.064;6.346;2022-11-21T00:08:14;24.93;;;5.47;;
5217;SDS011;26539;51.064;6.346;2022-11-21T00:10:42;16.02;;;5.20;;
5217;SDS011;26539;51.064;6.346;2022-11-21T00:13:11;21.43;;;5.33;;
5217;SDS011;26539;51.064;6.346;2022-11-21T00:15:39;21.27;;;5.82;;
5217;SDS011;26539;51.064;6.346;2022-11-21T00:18:04;13.87;;;5.90;;
5217;SDS011;26539;51.064;6.346;2022-11-21T00:20:30;14.93;;;6.00;;
5217;SDS011;26539;51.064;6.346;2022-11-21T00:22:56;19.30;;;4.95;;
5217;SDS011;26539;51.064;6.346;2022-11-21T00:25:21;14.30;;;4.87;;
5217;SDS011;26539;51.064;6.346;2022-11-21T00:27:47;20.07;;;5.83;;
5217;SDS011;26539;51.064;6.346;2022-11-21T00:30:13;15.23;;;5.57;;
5217;SDS011;26539;51.064;6.346;2022-11-21T00:32:38;18.30;;;5.13;;
5217;SDS011;26539;51.064;6.346;2022-11-21T00:35:04;14.47;;;5.10;;
5217;SDS011;26539;51.064;6.346;2022-11-21T00:37:31;16.90;;;5.00;;
5217;SDS011;26539;51.064;6.346;2022-11-21T00:39:57;17.55;;;5.10;;
5217;SDS011;26539;51.064;6.346;2022-11-21T00:42:23;11.73;;;4.60;;
5217;SDS011;26539;51.064;6.346;2022-11-21T00:44:49;15.30;;;4.30;;
5217;SDS011;26539;51.064;6.346;2022-11-21T00:47:14;17.93;;;5.20;;
5217;SDS011;26539;51.064;6.346;2022-11-21T00:49:40;13.67;;;4.43;;
5217;SDS011;26539;51.064;6.346;2022-11-21T00:52:05;13.30;;;5.40;;
5217;SDS011;26539;51.064;6.346;2022-11-21T00:54:31;13.33;;;4.73;;
5217;SDS011;26539;51.064;6.346;2022-11-21T00:56:56;16.23;;;5.57;;
5217;SDS011;26539;51.064;6.346;2022-11-21T00:59:22;24.40;;;5.00;;
5217;SDS011;26539;51.064;6.346;2022-11-21T01:01:47;16.53;;;5.67;;
5217;SDS011;26539;51.064;6.346;2022-11-21T01:04:13;18.30;;;5.63;;
5217;SDS011;26539;51.064;6.346;2022-11-21T01:06:38;17.63;;;5.23;;
5217;SDS011;26539;51.064;6.346;2022-11-21T01:09:04;15.30;;;5.33;;
5217;SDS011;26539;51.064;6.346;2022-11-21T01:11:30;15.67;;;4.90;;
5217;SDS011;26539;51.064;6.346;2022-11-21T01:13:56;17.70;;;6.13;;
5217;SDS011;26539;51.064;6.346;2022-11-21T01:16:23;22.92;;;4.97;;
5217;SDS011;26539;51.064;6.346;2022-11-21T01:18:50;22.05;;;4.85;;
5217;SDS011;26539;51.064;6.346;2022-11-21T01:23:42;14.43;;;5.45;;
5217;SDS011;26539;51.064;6.346;2022-11-21T01:26:09;13.97;;;5.53;;
5217;SDS011;26539;51.064;6.346;2022-11-21T01:28:36;16.00;;;4.15;;
5217;SDS011;26539;51.064;6.346;2022-11-21T01:31:06;15.63;;;4.50;;
5217;SDS011;26539;51.064;6.346;2022-11-21T01:33:33;11.95;;;4.32;;
5217;SDS011;26539;51.064;6.346;2022-11-21T01:36:06;12.70;;;4.05;;
5217;SDS011;26539;51.064;6.346;2022-11-21T01:38:33;15.45;;;4.10;;
5217;SDS011;26539;51.064;6.346;2022-11-21T01:40:58;15.80;;;4.40;;
5217;SDS011;26539;51.064;6.346;2022-11-21T01:43:24;15.00;;;4.00;;
5217;SDS011;26539;51.064;6.346;2022-11-21T01:45:51;18.67;;;4.63;;
5217;SDS011;26539;51.064;6.346;2022-11-21T01:49:07;12.18;;;3.53;;
5217;SDS011;26539;51.064;6.346;2022-11-21T01:53:40;12.43;;;4.38;;
5217;SDS011;26539;51.064;6.346;2022-11-21T01:56:09;8.95;;;3.67;;
5217;SDS011;26539;51.064;6.346;2022-11-21T01:58:35;19.42;;;4.38;;
5217;SDS011;26539;51.064;6.346;2022-11-21T02:01:02;16.58;;;4.25;;
5217;SDS011;26539;51.064;6.346;2022-11-21T02:03:29;9.03;;;3.53;;
5217;SDS011;26539;51.064;6.346;2022-11-21T02:05:58;10.45;;;3.90;;
5217;SDS011;26539;51.064;6.346;2022-11-21T02:08:24;14.80;;;3.97;;
5217;SDS011;26539;51.064;6.346;2022-11-21T02:11:01;16.00;;;4.07;;
5217;SDS011;26539;51.064;6.346;2022-11-21T02:13:38;17.48;;;3.85;;
5217;SDS011;26539;51.064;6.346;2022-11-21T02:16:03;12.50;;;4.67;;
5217;SDS011;26539;51.064;6.346;2022-11-21T02:18:31;17.45;;;4.85;;
5217;SDS011;26539;51.064;6.346;2022-11-21T02:21:02;9.07;;;4.00;;
5217;SDS011;26539;51.064;6.346;2022-11-21T02:23:38;12.50;;;3.92;;
5217;SDS011;26539;51.064;6.346;2022-11-21T02:26:12;13.95;;;4.82;;
5217;SDS011;26539;51.064;6.346;2022-11-21T02:28:38;15.13;;;4.50;;
5217;SDS011;26539;51.064;6.346;2022-11-21T02:31:04;18.03;;;5.80;;
5217;SDS011;26539;51.064;6.346;2022-11-21T02:33:29;18.27;;;3.90;;
5217;SDS011;26539;51.064;6.346;2022-11-21T02:35:58;14.83;;;3.80;;
5217;SDS011;26539;51.064;6.346;2022-11-21T02:38:29;12.23;;;4.53;;
5217;SDS011;26539;51.064;6.346;2022-11-21T02:41:08;17.48;;;5.05;;
5217;SDS011;26539;51.064;6.346;2022-11-21T02:43:43;17.15;;;4.90;;
5217;SDS011;26539;51.064;6.346;2022-11-21T02:46:23;11.38;;;4.00;;
5217;SDS011;26539;51.064;6.346;2022-11-21T02:48:51;13.82;;;4.75;;
5217;SDS011;26539;51.064;6.346;2022-11-21T02:51:16;19.63;;;4.53;;
5217;SDS011;26539;51.064;6.346;2022-11-21T02:53:42;10.53;;;4.00;;
5217;SDS011;26539;51.064;6.346;2022-11-21T02:56:07;13.80;;;5.97;;
5217;SDS011;26539;51.064;6.346;2022-11-21T02:58:33;16.17;;;4.00;;
5217;SDS011;26539;51.064;6.346;2022-11-21T03:00:58;13.30;;;5.40;;
5217;SDS011;26539;51.064;6.346;2022-11-21T03:03:24;12.30;;;4.40;;
5217;SDS011;26539;51.064;6.346;2022-11-21T03:05:49;9.67;;;3.93;;
5217;SDS011;26539;51.064;6.346;2022-11-21T03:08:15;10.77;;;3.50;;
5217;SDS011;26539;51.064;6.346;2022-11-21T03:10:40;10.77;;;4.00;;
5217;SDS011;26539;51.064;6.346;2022-11-21T03:13:06;13.80;;;4.70;;
5217;SDS011;26539;51.064;6.346;2022-11-21T03:15:32;11.00;;;3.70;;
5217;SDS011;26539;51.064;6.346;2022-11-21T03:17:59;10.60;;;3.03;;
5217;SDS011;26539;51.064;6.346;2022-11-21T03:20:26;10.60;;;3.30;;
5217;SDS011;26539;51.064;6.346;2022-11-21T03:22:53;10.25;;;6.38;;
5217;SDS011;26539;51.064;6.346;2022-11-21T03:25:18;5.90;;;3.10;;
5217;SDS011;26539;51.064;6.346;2022-11-21T03:27:44;9.10;;;3.17;;
5217;SDS011;26539;51.064;6.346;2022-11-21T03:30:10;5.57;;;2.70;;
5217;SDS011;26539;51.064;6.346;2022-11-21T03:32:36;7.88;;;3.10;;
5217;SDS011;26539;51.064;6.346;2022-11-21T03:35:01;9.10;;;3.43;;
5217;SDS011;26539;51.064;6.346;2022-11-21T03:37:27;11.53;;;3.57;;
5217;SDS011;26539;51.064;6.346;2022-11-21T03:39:52;5.87;;;3.80;;
5217;SDS011;26539;51.064;6.346;2022-11-21T03:42:18;13.20;;;3.70;;
5217;SDS011;26539;51.064;6.346;2022-11-21T03:44:43;16.03;;;4.30;;
5217;SDS011;26539;51.064;6.346;2022-11-21T03:47:08;17.33;;;4.77;;
5217;SDS011;26539;51.064;6.346;2022-11-21T03:49:34;11.87;;;4.37;;
5217;SDS011;26539;51.064;6.346;2022-11-21T03:51:59;9.20;;;5.03;;
5217;SDS011;26539;51.064;6.346;2022-11-21T03:54:25;14.80;;;5.40;;
5217;SDS011;26539;51.064;6.346;2022-11-21T03:56:50;11.13;;;5.83;;
5217;SDS011;26539;51.064;6.346;2022-11-21T03:59:16;8.37;;;4.30;;
5217;SDS011;26539;51.064;6.346;2022-11-21T04:01:41;17.20;;;5.83;;
5217;SDS011;26539;51.064;6.346;2022-11-21T04:04:07;11.70;;;5.20;;
5217;SDS011;26539;51.064;6.346;2022-11-21T04:06:32;8.83;;;4.60;;
5217;SDS011;26539;51.064;6.346;2022-11-21T04:08:58;13.40;;;4.83;;
5217;SDS011;26539;51.064;6.346;2022-11-21T04:11:23;14.30;;;6.47;;
5217;SDS011;26539;51.064;6.346;2022-11-21T04:13:49;12.90;;;5.10;;
5217;SDS011;26539;51.064;6.346;2022-11-21T04:16:18;11.38;;;5.97;;
5217;SDS011;26539;51.064;6.346;2022-11-21T04:18:44;20.77;;;6.97;;
5217;SDS011;26539;51.064;6.346;2022-11-21T04:21:09;11.50;;;6.67;;
5217;SDS011;26539;51.064;6.346;2022-11-21T04:23:35;18.13;;;7.60;;
5217;SDS011;26539;51.064;6.346;2022-11-21T04:26:00;17.63;;;6.53;;
5217;SDS011;26539;51.064;6.346;2022-11-21T04:28:26;17.13;;;6.93;;
5217;SDS011;26539;51.064;6.346;2022-11-21T04:30:52;11.80;;;7.03;;
5217;SDS011;26539;51.064;6.346;2022-11-21T04:33:17;13.00;;;6.10;;
5217;SDS011;26539;51.064;6.346;2022-11-21T04:35:44;9.18;;;5.65;;
5217;SDS011;26539;51.064;6.346;2022-11-21T04:38:10;13.05;;;5.85;;
5217;SDS011;26539;51.064;6.346;2022-11-21T04:40:38;13.47;;;6.00;;
5217;SDS011;26539;51.064;6.346;2022-11-21T04:43:08;9.15;;;6.00;;
5217;SDS011;26539;51.064;6.346;2022-11-21T04:45:33;18.90;;;6.80;;
5217;SDS011;26539;51.064;6.346;2022-11-21T04:47:59;12.90;;;6.57;;
5217;SDS011;26539;51.064;6.346;2022-11-21T04:50:27;9.43;;;6.93;;
5217;SDS011;26539;51.064;6.346;2022-11-21T04:52:53;10.57;;;5.28;;
5217;SDS011;26539;51.064;6.346;2022-11-21T04:55:20;17.70;;;8.63;;
5217;SDS011;26539;51.064;6.346;2022-11-21T04:57:53;17.35;;;8.32;;
5217;SDS011;26539;51.064;6.346;2022-11-21T05:00:24;21.25;;;8.10;;
5217;SDS011;26539;51.064;6.346;2022-11-21T05:02:50;25.27;;;8.43;;
5217;SDS011;26539;51.064;6.346;2022-11-21T05:05:15;14.03;;;8.50;;
5217;SDS011;26539;51.064;6.346;2022-11-21T05:07:43;12.73;;;8.00;;
5217;SDS011;26539;51.064;6.346;2022-11-21T05:10:09;16.20;;;8.83;;
5217;SDS011;26539;51.064;6.346;2022-11-21T05:12:35;16.97;;;9.30;;
5217;SDS011;26539;51.064;6.346;2022-11-21T05:15:19;15.98;;;9.75;;
5217;SDS011;26539;51.064;6.346;2022-11-21T05:17:45;18.63;;;9.30;;
5217;SDS011;26539;51.064;6.346;2022-11-21T05:20:10;15.33;;;9.57;;
5217;SDS011;26539;51.064;6.346;2022-11-21T05:22:37;18.20;;;10.27;;
5217;SDS011;26539;51.064;6.346;2022-11-21T05:25:02;18.83;;;10.20;;
5217;SDS011;26539;51.064;6.346;2022-11-21T05:27:28;14.80;;;9.52;;
5217;SDS011;26539;51.064;6.346;2022-11-21T05:29:54;18.20;;;10.40;;
5217;SDS011;26539;51.064;6.346;2022-11-21T05:32:20;14.00;;;9.20;;
5217;SDS011;26539;51.064;6.346;2022-11-21T05:34:45;15.90;;;9.00;;
5217;SDS011;26539;51.064;6.346;2022-11-21T05:37:11;15.70;;;8.80;;
5217;SDS011;26539;51.064;6.346;2022-11-21T05:39:36;12.13;;;8.60;;
5217;SDS011;26539;51.064;6.346;2022-11-21T05:42:02;22.47;;;9.87;;
5217;SDS011;26539;51.064;6.346;2022-11-21T05:44:27;19.23;;;11.03;;
5217;SDS011;26539;51.064;6.346;2022-11-21T05:46:53;14.93;;;9.60;;
5217;SDS011;26539;51.064;6.346;2022-11-21T05:49:18;25.73;;;9.67;;
5217;SDS011;26539;51.064;6.346;2022-11-21T05:51:44;13.53;;;8.30;;
5217;SDS011;26539;51.064;6.346;2022-11-21T05:54:13;13.20;;;8.33;;
5217;SDS011;26539;51.064;6.346;2022-11-21T05:56:39;18.80;;;8.77;;
5217;SDS011;26539;51.064;6.346;2022-11-21T05:59:04;11.20;;;8.00;;
5217;SDS011;26539;51.064;6.346;2022-11-21T06:01:30;12.60;;;8.10;;
5217;SDS011;26539;51.064;6.346;2022-11-21T06:04:17;13.07;;;7.93;;
5217;SDS011;26539;51.064;6.346;2022-11-21T06:23:31;13.95;;;7.10;;
5217;SDS011;26539;51.064;6.346;2022-11-21T06:52:04;10.77;;;7.82;;
5217;SDS011;26539;51.064;6.346;2022-11-21T07:01:32;8.45;;;7.05;;
5217;SDS011;26539;51.064;6.346;2022-11-21T07:08:21;15.88;;;6.93;;
5217;SDS011;26539;51.064;6.346;2022-11-21T07:11:36;12.02;;;7.88;;
5217;SDS011;26539;51.064;6.346;2022-11-21T07:15:06;11.68;;;7.60;;
5217;SDS011;26539;51.064;6.346;2022-11-21T07:21:16;11.13;;;9.48;;
5217;SDS011;26539;51.064;6.346;2022-11-21T07:24:11;17.23;;;10.07;;
5217;SDS011;26539;51.064;6.346;2022-11-21T07:26:42;13.77;;;9.20;;
5217;SDS011;26539;51.064;6.346;2022-11-21T07:29:19;18.63;;;10.25;;
5217;SDS011;26539;51.064;6.346;2022-11-21T07:31:44;14.10;;;9.32;;
5217;SDS011;26539;51.064;6.346;2022-11-21T07:34:22;18.23;;;10.83;;
5217;SDS011;26539;51.064;6.346;2022-11-21T07:36:56;20.52;;;11.60;;
5217;SDS011;26539;51.064;6.346;2022-11-21T07:55:33;17.15;;;10.30;;
5217;SDS011;26539;51.064;6.346;2022-11-21T08:01:41;15.95;;;10.00;;
5217;SDS011;26539;51.064;6.346;2022-11-21T08:04:10;23.05;;;11.20;;
5217;SDS011;26539;51.064;6.346;2022-11-21T08:07:08;17.30;;;9.80;;
5217;SDS011;26539;51.064;6.346;2022-11-21T08:10:28;20.65;;;11.02;;
5217;SDS011;26539;51.064;6.346;2022-11-21T08:15:51;25.73;;;11.40;;
5217;SDS011;26539;51.064;6.346;2022-11-21T08:18:55;23.20;;;11.23;;
5217;SDS011;26539;51.064;6.346;2022-11-21T08:21:53;18.45;;;9.57;;
5217;SDS011;26539;51.064;6.346;2022-11-21T08:24:44;15.30;;;10.07;;
5217;SDS011;26539;51.064;6.346;2022-11-21T08:29:59;12.80;;;8.75;;
5217;SDS011;26539;51.064;6.346;2022-11-21T08:32:43;14.20;;;8.20;;
5217;SDS011;26539;51.064;6.346;2022-11-21T08:38:11;20.35;;;9.23;;
5217;SDS011;26539;51.064;6.346;2022-11-21T08:40:42;25.58;;;9.25;;
5217;SDS011;26539;51.064;6.346;2022-11-21T08:43:46;15.38;;;7.80;;
5217;SDS011;26539;51.064;6.346;2022-11-21T08:46:27;17.05;;;8.43;;
5217;SDS011;26539;51.064;6.346;2022-11-21T08:48:54;11.27;;;7.17;;
5217;SDS011;26539;51.064;6.346;2022-11-21T09:06:38;10.00;;;4.47;;
5217;SDS011;26539;51.064;6.346;2022-11-21T09:17:04;10.60;;;4.80;;
5217;SDS011;26539;51.064;6.346;2022-11-21T09:24:20;7.27;;;4.00;;
5217;SDS011;26539;51.064;6.346;2022-11-21T09:27:06;10.73;;;4.60;;
5217;SDS011;26539;51.064;6.346;2022-11-21T09:33:34;6.93;;;4.00;;
5217;SDS011;26539;51.064;6.346;2022-11-21T09:36:38;10.63;;;5.03;;
5217;SDS011;26539;51.064;6.346;2022-11-21T09:39:47;7.50;;;4.23;;
5217;SDS011;26539;51.064;6.346;2022-11-21T09:46:16;19.03;;;4.77;;
5217;SDS011;26539;51.064;6.346;2022-11-21T09:49:32;6.17;;;3.33;;
5217;SDS011;26539;51.064;6.346;2022-11-21T09:52:20;8.23;;;3.60;;
5217;SDS011;26539;51.064;6.346;2022-11-21T10:02:30;4.80;;;2.60;;
5217;SDS011;26539;51.064;6.346;2022-11-21T10:34:50;10.57;;;3.10;;
5217;SDS011;26539;51.064;6.346;2022-11-21T10:41:36;7.63;;;2.73;;
5217;SDS011;26539;51.064;6.346;2022-11-21T10:44:38;10.73;;;3.03;;
5217;SDS011;26539;51.064;6.346;2022-11-21T10:48:12;4.30;;;2.23;;
5217;SDS011;26539;51.064;6.346;2022-11-21T10:57:21;8.80;;;3.20;;
5217;SDS011;26539;51.064;6.346;2022-11-21T11:03:43;7.53;;;2.10;;
5217;SDS011;26539;51.064;6.346;2022-11-21T11:06:35;6.83;;;3.00;;
5217;SDS011;26539;51.064;6.346;2022-11-21T11:09:32;6.40;;;3.53;;
5217;SDS011;26539;51.064;6.346;2022-11-21T11:18:24;3.03;;;1.70;;
5217;SDS011;26539;51.064;6.346;2022-11-21T11:24:19;6.07;;;2.63;;
5217;SDS011;26539;51.064;6.346;2022-11-21T11:30:25;3.60;;;1.60;;
5217;SDS011;26539;51.064;6.346;2022-11-21T11:34:04;3.77;;;1.90;;
5217;SDS011;26539;51.064;6.346;2022-11-21T11:37:21;5.47;;;1.77;;
5217;SDS011;26539;51.064;6.346;2022-11-21T11:44:22;4.00;;;1.73;;
5217;SDS011;26539;51.064;6.346;2022-11-21T11:57:55;6.40;;;2.00;;
5217;SDS011;26539;51.064;6.346;2022-11-21T12:06:15;4.20;;;1.70;;
5217;SDS011;26539;51.064;6.346;2022-11-21T12:08:52;4.17;;;1.53;;
5217;SDS011;26539;51.064;6.346;2022-11-21T12:11:28;2.03;;;1.07;;
5217;SDS011;26539;51.064;6.346;2022-11-21T12:14:29;3.50;;;1.40;;
5217;SDS011;26539;51.064;6.346;2022-11-21T12:23:22;3.37;;;1.27;;
5217;SDS011;26539;51.064;6.346;2022-11-21T12:26:06;2.63;;;0.90;;
5217;SDS011;26539;51.064;6.346;2022-11-21T12:34:03;4.67;;;1.73;;
5217;SDS011;26539;51.064;6.346;2022-11-21T12:37:16;8.63;;;1.30;;
5217;SDS011;26539;51.064;6.346;2022-11-21T12:42:51;2.80;;;1.00;;
5217;SDS011;26539;51.064;6.346;2022-11-21T12:45:50;4.70;;;1.20;;
5217;SDS011;26539;51.064;6.346;2022-11-21T12:57:38;3.50;;;1.07;;
5217;SDS011;26539;51.064;6.346;2022-11-21T13:05:51;3.00;;;2.73;;
5217;SDS011;26539;51.064;6.346;2022-11-21T13:08:29;3.40;;;1.60;;
5217;SDS011;26539;51.064;6.346;2022-11-21T13:14:09;3.97;;;3.10;;
5217;SDS011;26539;51.064;6.346;2022-11-21T13:16:36;5.13;;;2.00;;
5217;SDS011;26539;51.064;6.346;2022-11-21T13:19:13;4.37;;;2.17;;
5217;SDS011;26539;51.064;6.346;2022-11-21T13:21:42;5.03;;;4.23;;
5217;SDS011;26539;51.064;6.346;2022-11-21T13:32:41;5.70;;;3.00;;
5217;SDS011;26539;51.064;6.346;2022-11-21T13:43:12;9.03;;;4.90;;
5217;SDS011;26539;51.064;6.346;2022-11-21T13:48:14;3.63;;;2.37;;
5217;SDS011;26539;51.064;6.346;2022-11-21T13:53:30;3.67;;;1.30;;
5217;SDS011;26539;51.064;6.346;2022-11-21T13:56:54;12.30;;;2.07;;
5217;SDS011;26539;51.064;6.346;2022-11-21T14:05:22;6.30;;;1.77;;
5217;SDS011;26539;51.064;6.346;2022-11-21T14:08:17;18.60;;;1.90;;
5217;SDS011;26539;51.064;6.346;2022-11-21T14:10:47;3.83;;;1.80;;
5217;SDS011;26539;51.064;6.346;2022-11-21T14:13:16;9.23;;;2.10;;
5217;SDS011;26539;51.064;6.346;2022-11-21T14:16:02;5.53;;;2.67;;
5217;SDS011;26539;51.064;6.346;2022-11-21T14:18:35;4.60;;;2.63;;
5217;SDS011;26539;51.064;6.346;2022-11-21T14:21:06;3.23;;;1.83;;
5217;SDS011;26539;51.064;6.346;2022-11-21T14:23:43;9.20;;;4.07;;
5217;SDS011;26539;51.064;6.346;2022-11-21T14:26:10;12.17;;;9.10;;
5217;SDS011;26539;51.064;6.346;2022-11-21T14:28:38;15.87;;;14.50;;
5217;SDS011;26539;51.064;6.346;2022-11-21T14:31:08;9.80;;;2.23;;
5217;SDS011;26539;51.064;6.346;2022-11-21T14:33:39;6.57;;;1.87;;
5217;SDS011;26539;51.064;6.346;2022-11-21T14:36:16;5.90;;;1.50;;
5217;SDS011;26539;51.064;6.346;2022-11-21T14:38:54;13.43;;;2.00;;
5217;SDS011;26539;51.064;6.346;2022-11-21T14:46:26;6.17;;;1.60;;
5217;SDS011;26539;51.064;6.346;2022-11-21T14:51:41;6.40;;;2.20;;
5217;SDS011;26539;51.064;6.346;2022-11-21T14:54:13;8.87;;;2.10;;
5217;SDS011;26539;51.064;6.346;2022-11-21T14:56:42;4.97;;;1.80;;
5217;SDS011;26539;51.064;6.346;2022-11-21T14:59:21;5.93;;;2.23;;
5217;SDS011;26539;51.064;6.346;2022-11-21T15:01:56;6.80;;;2.53;;
5217;SDS011;26539;51.064;6.346;2022-11-21T15:04:28;6.83;;;2.50;;
5217;SDS011;26539;51.064;6.346;2022-11-21T15:06:55;5.93;;;2.83;;
5217;SDS011;26539;51.064;6.346;2022-11-21T15:09:21;5.37;;;3.00;;
5217;SDS011;26539;51.064;6.346;2022-11-21T15:11:57;5.63;;;3.07;;
5217;SDS011;26539;51.064;6.346;2022-11-21T15:14:37;15.60;;;3.50;;
5217;SDS011;26539;51.064;6.346;2022-11-21T15:17:14;8.93;;;2.97;;
5217;SDS011;26539;51.064;6.346;2022-11-21T15:19:42;6.77;;;2.33;;
5217;SDS011;26539;51.064;6.346;2022-11-21T15:22:20;7.63;;;2.53;;
5217;SDS011;26539;51.064;6.346;2022-11-21T15:25:04;6.07;;;3.33;;
5217;SDS011;26539;51.064;6.346;2022-11-21T15:27:32;9.70;;;2.73;;
5217;SDS011;26539;51.064;6.346;2022-11-21T15:32:33;15.27;;;2.63;;
5217;SDS011;26539;51.064;6.346;2022-11-21T15:34:59;10.23;;;3.07;;
5217;SDS011;26539;51.064;6.346;2022-11-21T15:37:51;4.30;;;2.73;;
5217;SDS011;26539;51.064;6.346;2022-11-21T15:40:17;7.10;;;2.97;;
5217;SDS011;26539;51.064;6.346;2022-11-21T15:42:44;4.63;;;2.43;;
5217;SDS011;26539;51.064;6.346;2022-11-21T15:47:38;18.37;;;12.13;;
5217;SDS011;26539;51.064;6.346;2022-11-21T15:50:04;5.83;;;2.90;;
5217;SDS011;26539;51.064;6.346;2022-11-21T15:52:30;8.70;;;3.37;;
5217;SDS011;26539;51.064;6.346;2022-11-21T15:54:55;6.80;;;4.07;;
5217;SDS011;26539;51.064;6.346;2022-11-21T15:57:21;17.37;;;8.03;;
5217;SDS011;26539;51.064;6.346;2022-11-21T15:59:46;9.53;;;5.27;;
5217;SDS011;26539;51.064;6.346;2022-11-21T16:02:12;6.77;;;4.30;;
5217;SDS011;26539;51.064;6.346;2022-11-21T16:04:38;12.87;;;3.70;;
5217;SDS011;26539;51.064;6.346;2022-11-21T16:07:04;5.80;;;3.72;;
5217;SDS011;26539;51.064;6.346;2022-11-21T16:09:30;10.47;;;3.70;;
5217;SDS011;26539;51.064;6.346;2022-11-21T16:11:55;8.93;;;3.20;;
5217;SDS011;26539;51.064;6.346;2022-11-21T16:14:21;13.50;;;4.17;;
5217;SDS011;26539;51.064;6.346;2022-11-21T16:16:46;11.80;;;3.90;;
5217;SDS011;26539;51.064;6.346;2022-11-21T16:19:12;10.43;;;3.53;;
5217;SDS011;26539;51.064;6.346;2022-11-21T16:21:39;8.53;;;3.10;;
5217;SDS011;26539;51.064;6.346;2022-11-21T16:24:04;8.80;;;3.40;;
5217;SDS011;26539;51.064;6.346;2022-11-21T16:26:30;8.80;;;3.93;;
5217;SDS011;26539;51.064;6.346;2022-11-21T16:28:57;11.20;;;4.47;;
5217;SDS011;26539;51.064;6.346;2022-11-21T16:31:25;13.15;;;6.57;;
5217;SDS011;26539;51.064;6.346;2022-11-21T16:33:54;10.75;;;3.60;;
5217;SDS011;26539;51.064;6.346;2022-11-21T16:36:20;14.77;;;5.20;;
5217;SDS011;26539;51.064;6.346;2022-11-21T16:38:48;15.20;;;5.37;;
5217;SDS011;26539;51.064;6.346;2022-11-21T16:41:15;11.40;;;5.20;;
5217;SDS011;26539;51.064;6.346;2022-11-21T16:43:45;8.70;;;4.00;;
5217;SDS011;26539;51.064;6.346;2022-11-21T16:46:15;9.57;;;4.17;;
5217;SDS011;26539;51.064;6.346;2022-11-21T16:48:42;11.25;;;3.60;;
5217;SDS011;26539;51.064;6.346;2022-11-21T16:51:11;7.20;;;3.43;;
5217;SDS011;26539;51.064;6.346;2022-11-21T16:53:40;4.65;;;3.25;;
5217;SDS011;26539;51.064;6.346;2022-11-21T16:56:06;9.43;;;3.50;;
5217;SDS011;26539;51.064;6.346;2022-11-21T16:58:34;6.37;;;3.60;;
5217;SDS011;26539;51.064;6.346;2022-11-21T17:01:10;6.00;;;3.20;;
5217;SDS011;26539;51.064;6.346;2022-11-21T17:03:37;8.47;;;4.53;;
5217;SDS011;26539;51.064;6.346;2022-11-21T17:06:03;14.37;;;5.80;;
5217;SDS011;26539;51.064;6.346;2022-11-21T17:08:29;9.27;;;3.93;;
5217;SDS011;26539;51.064;6.346;2022-11-21T17:10:55;9.90;;;3.70;;
5217;SDS011;26539;51.064;6.346;2022-11-21T17:13:20;9.10;;;3.60;;
5217;SDS011;26539;51.064;6.346;2022-11-21T17:15:46;12.38;;;4.30;;
5217;SDS011;26539;51.064;6.346;2022-11-21T17:18:11;7.80;;;4.10;;
5217;SDS011;26539;51.064;6.346;2022-11-21T17:20:37;11.30;;;5.13;;
5217;SDS011;26539;51.064;6.346;2022-11-21T17:23:02;11.70;;;5.07;;
5217;SDS011;26539;51.064;6.346;2022-11-21T17:25:28;11.83;;;6.80;;
5217;SDS011;26539;51.064;6.346;2022-11-21T17:27:53;9.13;;;4.90;;
5217;SDS011;26539;51.064;6.346;2022-11-21T17:30:19;11.00;;;5.67;;
5217;SDS011;26539;51.064;6.346;2022-11-21T17:32:47;14.73;;;4.75;;
5217;SDS011;26539;51.064;6.346;2022-11-21T17:35:13;9.43;;;4.07;;
5217;SDS011;26539;51.064;6.346;2022-11-21T17:37:38;12.23;;;6.97;;
5217;SDS011;26539;51.064;6.346;2022-11-21T17:40:04;8.93;;;4.43;;
5217;SDS011;26539;51.064;6.346;2022-11-21T17:42:34;10.60;;;4.10;;
5217;SDS011;26539;51.064;6.346;2022-11-21T17:45:05;5.20;;;3.38;;
5217;SDS011;26539;51.064;6.346;2022-11-21T17:47:32;11.80;;;4.10;;
5217;SDS011;26539;51.064;6.346;2022-11-21T17:49:58;8.07;;;3.50;;
5217;SDS011;26539;51.064;6.346;2022-11-21T17:52:23;11.10;;;3.57;;
5217;SDS011;26539;51.064;6.346;2022-11-21T17:54:49;11.07;;;3.77;;
5217;SDS011;26539;51.064;6.346;2022-11-21T17:57:14;11.90;;;4.10;;
5217;SDS011;26539;51.064;6.346;2022-11-21T17:59:40;9.43;;;3.87;;
5217;SDS011;26539;51.064;6.346;2022-11-21T18:02:05;6.60;;;3.80;;
5217;SDS011;26539;51.064;6.346;2022-11-21T18:04:31;6.13;;;3.47;;
5217;SDS011;26539;51.064;6.346;2022-11-21T18:06:58;10.95;;;4.18;;
5217;SDS011;26539;51.064;6.346;2022-11-21T18:09:23;12.87;;;8.53;;
5217;SDS011;26539;51.064;6.346;2022-11-21T18:11:52;12.75;;;5.50;;
5217;SDS011;26539;51.064;6.346;2022-11-21T18:14:17;15.10;;;12.07;;
5217;SDS011;26539;51.064;6.346;2022-11-21T18:16:43;15.00;;;6.30;;
5217;SDS011;26539;51.064;6.346;2022-11-21T18:19:11;11.20;;;5.95;;
5217;SDS011;26539;51.064;6.346;2022-11-21T18:21:40;9.45;;;4.63;;
5217;SDS011;26539;51.064;6.346;2022-11-21T18:24:05;10.03;;;5.40;;
5217;SDS011;26539;51.064;6.346;2022-11-21T18:26:33;20.50;;;5.40;;
5217;SDS011;26539;51.064;6.346;2022-11-21T18:29:06;14.95;;;4.95;;
5217;SDS011;26539;51.064;6.346;2022-11-21T18:31:33;8.23;;;4.30;;
5217;SDS011;26539;51.064;6.346;2022-11-21T18:34:00;7.30;;;3.53;;
5217;SDS011;26539;51.064;6.346;2022-11-21T18:36:27;14.00;;;6.77;;
5217;SDS011;26539;51.064;6.346;2022-11-21T18:38:55;8.47;;;4.47;;
5217;SDS011;26539;51.064;6.346;2022-11-21T18:41:30;8.90;;;4.43;;
5217;SDS011;26539;51.064;6.346;2022-11-21T18:44:03;10.45;;;3.90;;
5217;SDS011;26539;51.064;6.346;2022-11-21T18:46:30;13.50;;;4.20;;
5217;SDS011;26539;51.064;6.346;2022-11-21T18:49:09;8.52;;;3.70;;
5217;SDS011;26539;51.064;6.346;2022-11-21T18:51:39;9.93;;;3.75;;
5217;SDS011;26539;51.064;6.346;2022-11-21T18:54:12;10.20;;;3.60;;
5217;SDS011;26539;51.064;6.346;2022-11-21T18:59:58;14.73;;;4.17;;
5217;SDS011;26539;51.064;6.346;2022-11-21T19:02:28;15.25;;;4.60;;
5217;SDS011;26539;51.064;6.346;2022-11-21T19:05:19;6.95;;;3.25;;
5217;SDS011;26539;51.064;6.346;2022-11-21T19:10:40;6.30;;;4.00;;
5217;SDS011;26539;51.064;6.346;2022-11-21T19:13:27;10.47;;;3.97;;
5217;SDS011;26539;51.064;6.346;2022-11-21T19:15:59;8.52;;;3.38;;
5217;SDS011;26539;51.064;6.346;2022-11-21T19:21:47;5.70;;;3.60;;
5217;SDS011;26539;51.064;6.346;2022-11-21T19:24:18;11.90;;;4.30;;
5217;SDS011;26539;51.064;6.346;2022-11-21T19:26:57;11.52;;;5.25;;
5217;SDS011;26539;51.064;6.346;2022-11-21T19:29:26;16.52;;;5.55;;
5217;SDS011;26539;51.064;6.346;2022-11-21T19:31:54;11.27;;;5.55;;
5217;SDS011;26539;51.064;6.346;2022-11-21T19:34:27;14.13;;;5.50;;
5217;SDS011;26539;51.064;6.346;2022-11-21T19:37:05;16.50;;;7.05;;
5217;SDS011;26539;51.064;6.346;2022-11-21T19:39:36;14.95;;;5.90;;
5217;SDS011;26539;51.064;6.346;2022-11-21T19:42:17;18.58;;;6.45;;
5217;SDS011;26539;51.064;6.346;2022-11-21T19:44:50;12.07;;;6.45;;
5217;SDS011;26539;51.064;6.346;2022-11-21T19:47:30;13.32;;;6.13;;
5217;SDS011;26539;51.064;6.346;2022-11-21T19:50:26;15.02;;;5.85;;
5217;SDS011;26539;51.064;6.346;2022-11-21T19:53:23;16.33;;;6.70;;
5217;SDS011;26539;51.064;6.346;2022-11-21T19:59:29;17.27;;;7.10;;
5217;SDS011;26539;51.064;6.346;2022-11-21T20:02:08;18.83;;;7.20;;
5217;SDS011;26539;51.064;6.346;2022-11-21T20:05:04;16.92;;;8.25;;
5217;SDS011;26539;51.064;6.346;2022-11-21T20:07:32;22.10;;;8.20;;
5217;SDS011;26539;51.064;6.346;2022-11-21T20:10:18;20.07;;;8.87;;
5217;SDS011;26539;51.064;6.346;2022-11-21T20:16:01;30.63;;;12.38;;
5217;SDS011;26539;51.064;6.346;2022-11-21T20:19:17;17.17;;;8.63;;
5217;SDS011;26539;51.064;6.346;2022-11-21T20:25:27;26.38;;;10.57;;